createdAt,value
2022-10-22T00:01:36.775Z,100.00
2022-10-22T00:04:06.341Z,100.00
2022-10-22T00:06:36.168Z,100.00
2022-10-22T00:09:05.223Z,100.00
2022-10-22T00:11:33.790Z,100.00
2022-10-22T00:14:02.695Z,100.00
2022-10-22T00:16:33.635Z,100.00
2022-10-22T00:19:02.928Z,100.00
2022-10-22T00:21:31.308Z,100.00
2022-10-22T00:23:59.986Z,100.00
2022-10-22T00:26:28.772Z,100.00
2022-10-22T00:28:57.507Z,100.00
2022-10-22T00:31:26.069Z,100.00
2022-10-22T00:33:56.026Z,100.00
2022-10-22T00:36:24.667Z,100.00
2022-10-22T00:38:53.184Z,100.00
2022-10-22T00:41:22.167Z,100.00
2022-10-22T00:43:59.876Z,100.00
2022-10-22T00:46:28.316Z,100.00
2022-10-22T00:49:00.384Z,100.00
2022-10-22T00:51:34.032Z,100.00
2022-10-22T00:54:06.669Z,100.00
2022-10-22T00:56:35.107Z,100.00
2022-10-22T00:59:05.384Z,100.00
2022-10-22T01:01:34.157Z,100.00
2022-10-22T01:04:04.324Z,100.00
2022-10-22T01:06:35.279Z,100.00
2022-10-22T01:09:17.980Z,100.00
2022-10-22T01:11:57.897Z,100.00
2022-10-22T01:14:37.577Z,100.00
2022-10-22T01:17:11.180Z,100.00
2022-10-22T01:19:58.793Z,100.00
2022-10-22T01:22:31.356Z,100.00
2022-10-22T01:25:06.645Z,100.00
2022-10-22T01:27:47.203Z,100.00
2022-10-22T01:30:19.066Z,100.00
2022-10-22T01:32:51.839Z,100.00
2022-10-22T01:35:25.239Z,100.00
2022-10-22T01:37:58.594Z,100.00
2022-10-22T01:40:29.001Z,100.00
2022-10-22T01:42:59.282Z,100.00
2022-10-22T01:45:31.754Z,100.00
2022-10-22T01:48:10.771Z,100.00
2022-10-22T01:51:14.779Z,100.00
2022-10-22T01:53:52.238Z,100.00
2022-10-22T01:56:36.718Z,100.00
2022-10-22T01:59:14.842Z,100.00
2022-10-22T02:01:53.640Z,100.00
2022-10-22T02:04:25.701Z,100.00
2022-10-22T02:06:58.749Z,100.00
2022-10-22T02:09:30.822Z,100.00
2022-10-22T02:12:01.364Z,100.00
2022-10-22T02:14:32.567Z,100.00
2022-10-22T02:17:03.309Z,100.00
2022-10-22T02:19:41.711Z,100.00
2022-10-22T02:22:10.280Z,100.00
2022-10-22T02:24:39.133Z,100.00
2022-10-22T02:27:14.360Z,100.00
2022-10-22T02:29:49.766Z,100.00
2022-10-22T02:32:23.366Z,100.00
2022-10-22T02:34:52.629Z,100.00
2022-10-22T02:37:22.267Z,100.00
2022-10-22T02:39:51.775Z,100.00
2022-10-22T02:42:20.672Z,100.00
2022-10-22T02:44:49.157Z,100.00
2022-10-22T02:47:19.139Z,100.00
2022-10-22T02:49:47.896Z,100.00
2022-10-22T02:52:16.322Z,100.00
2022-10-22T02:54:44.678Z,100.00
2022-10-22T02:57:13.056Z,100.00
2022-10-22T02:59:41.473Z,100.00
2022-10-22T03:02:10.146Z,100.00
2022-10-22T03:04:39.752Z,100.00
2022-10-22T03:07:08.094Z,100.00
2022-10-22T03:09:36.652Z,100.00
2022-10-22T03:12:06.506Z,100.00
2022-10-22T03:14:35.086Z,100.00
2022-10-22T03:17:03.690Z,100.00
2022-10-22T03:19:32.472Z,100.00
2022-10-22T03:22:04.058Z,100.00
2022-10-22T03:24:37.144Z,100.00
2022-10-22T03:27:05.909Z,100.00
2022-10-22T03:29:40.403Z,100.00
2022-10-22T03:32:09.467Z,100.00
2022-10-22T03:34:38.277Z,100.00
2022-10-22T03:37:08.032Z,100.00
2022-10-22T03:39:37.515Z,100.00
2022-10-22T03:42:08.034Z,100.00
2022-10-22T03:44:37.934Z,100.00
2022-10-22T03:47:06.344Z,100.00
2022-10-22T03:49:34.695Z,100.00
2022-10-22T03:52:09.529Z,100.00
2022-10-22T03:57:07.479Z,100.00
2022-10-22T03:59:37.299Z,100.00
2022-10-22T04:02:06.037Z,100.00
2022-10-22T04:04:34.534Z,100.00
2022-10-22T04:07:03.073Z,100.00
2022-10-22T04:09:35.682Z,100.00
2022-10-22T04:12:05.809Z,100.00
2022-10-22T04:14:34.452Z,100.00
2022-10-22T04:17:03.049Z,100.00
2022-10-22T04:19:31.486Z,100.00
2022-10-22T04:22:00.628Z,100.00
2022-10-22T04:24:29.765Z,100.00
2022-10-22T04:27:00.516Z,100.00
2022-10-22T04:29:28.758Z,100.00
2022-10-22T04:31:57.348Z,100.00
2022-10-22T04:34:29.104Z,100.00
2022-10-22T04:36:57.715Z,100.00
2022-10-22T04:39:26.313Z,100.00
2022-10-22T04:41:54.488Z,100.00
2022-10-22T04:44:24.412Z,100.00
2022-10-22T04:46:52.785Z,100.00
2022-10-22T04:49:21.067Z,100.00
2022-10-22T04:51:49.275Z,100.00
2022-10-22T04:54:18.207Z,100.00
2022-10-22T04:56:46.557Z,100.00
2022-10-22T04:59:15.190Z,100.00
2022-10-22T05:01:46.160Z,100.00
2022-10-22T05:04:16.680Z,100.00
2022-10-22T05:06:45.926Z,100.00
2022-10-22T05:09:16.484Z,100.00
2022-10-22T05:11:48.796Z,100.00
2022-10-22T05:14:18.666Z,100.00
2022-10-22T05:16:49.193Z,100.00
2022-10-22T05:19:20.809Z,100.00
2022-10-22T05:21:50.077Z,100.00
2022-10-22T05:24:18.336Z,100.00
2022-10-22T05:26:47.133Z,100.00
2022-10-22T05:29:15.912Z,100.00
2022-10-22T05:31:44.120Z,100.00
2022-10-22T05:34:14.214Z,100.00
2022-10-22T05:36:42.646Z,100.00
2022-10-22T05:39:11.035Z,100.00
2022-10-22T05:41:39.951Z,100.00
2022-10-22T05:44:08.641Z,100.00
2022-10-22T05:46:37.836Z,100.00
2022-10-22T05:49:07.846Z,100.00
2022-10-22T05:51:38.533Z,100.00
2022-10-22T05:54:08.749Z,100.00
2022-10-22T05:56:38.014Z,100.00
2022-10-22T05:59:06.310Z,100.00
2022-10-22T06:01:36.720Z,100.00
2022-10-22T06:04:08.292Z,100.00
2022-10-22T06:06:41.408Z,100.00
2022-10-22T06:09:17.431Z,100.00
2022-10-22T06:11:46.036Z,100.00
2022-10-22T06:14:14.912Z,100.00
2022-10-22T06:16:43.700Z,100.00
2022-10-22T06:19:14.036Z,100.00
2022-10-22T06:21:44.466Z,100.00
2022-10-22T06:24:13.671Z,100.00
2022-10-22T06:26:43.281Z,100.00
2022-10-22T06:29:11.869Z,100.00
2022-10-22T06:31:40.249Z,100.00
2022-10-22T06:34:12.255Z,100.00
2022-10-22T06:36:42.907Z,100.00
2022-10-22T06:39:14.427Z,100.00
2022-10-22T06:41:43.124Z,100.00
2022-10-22T06:44:15.701Z,100.00
2022-10-22T06:46:44.169Z,100.00
2022-10-22T06:49:15.290Z,100.00
2022-10-22T06:51:43.694Z,100.00
2022-10-22T06:54:14.322Z,100.00
2022-10-22T06:56:43.061Z,100.00
2022-10-22T06:59:11.751Z,100.00
2022-10-22T07:01:41.154Z,100.00
2022-10-22T07:04:11.383Z,100.00
2022-10-22T07:06:39.626Z,100.00
2022-10-22T07:09:08.658Z,100.00
2022-10-22T07:11:42.974Z,100.00
2022-10-22T07:14:11.762Z,100.00
2022-10-22T07:16:42.220Z,100.00
2022-10-22T07:19:11.101Z,100.00
2022-10-22T07:21:39.681Z,100.00
2022-10-22T07:24:08.518Z,100.00
2022-10-22T07:26:37.189Z,100.00
2022-10-22T07:29:07.434Z,100.00
2022-10-22T07:31:35.644Z,100.00
2022-10-22T07:34:04.509Z,100.00
2022-10-22T07:36:32.996Z,100.00
2022-10-22T07:39:02.744Z,100.00
2022-10-22T07:41:31.738Z,100.00
2022-10-22T07:44:00.476Z,100.00
2022-10-22T07:46:30.137Z,100.00
2022-10-22T07:48:58.805Z,100.00
2022-10-22T07:51:32.071Z,100.00
2022-10-22T07:54:03.280Z,100.00
2022-10-22T07:56:32.317Z,100.00
2022-10-22T08:01:35.695Z,100.00
2022-10-22T08:04:04.247Z,100.00
2022-10-22T08:06:32.771Z,100.00
2022-10-22T08:09:02.069Z,100.00
2022-10-22T08:11:31.234Z,100.00
2022-10-22T08:13:59.654Z,100.00
2022-10-22T08:16:28.532Z,100.00
2022-10-22T08:18:58.366Z,100.00
2022-10-22T08:21:28.591Z,100.00
2022-10-22T08:23:57.478Z,100.00
2022-10-22T08:26:26.050Z,100.00
2022-10-22T08:28:54.532Z,100.00
2022-10-22T08:31:22.812Z,100.00
2022-10-22T08:33:51.819Z,100.00
2022-10-22T08:36:22.656Z,100.00
2022-10-22T08:38:51.364Z,100.00
2022-10-22T08:41:21.707Z,100.00
2022-10-22T08:44:20.520Z,100.00
2022-10-22T08:46:59.241Z,100.00
2022-10-22T08:49:30.213Z,100.00
2022-10-22T08:52:01.696Z,100.00
2022-10-22T08:54:44.919Z,100.00
2022-10-22T08:57:48.693Z,100.00
2022-10-22T09:00:25.786Z,100.00
2022-10-22T09:03:09.697Z,100.00
2022-10-22T09:08:26.017Z,100.00
2022-10-22T09:11:00.135Z,100.00
2022-10-22T09:13:29.267Z,100.00
2022-10-22T09:16:02.126Z,100.00
2022-10-22T09:18:41.312Z,100.00
2022-10-22T09:21:21.399Z,100.00
2022-10-22T09:24:05.632Z,100.00
2022-10-22T09:26:39.437Z,100.00
2022-10-22T09:29:09.485Z,100.00
2022-10-22T09:31:38.788Z,100.00
2022-10-22T09:34:07.919Z,100.00
2022-10-22T09:36:37.575Z,100.00
2022-10-22T09:39:24.397Z,100.00
2022-10-22T09:41:53.112Z,100.00
2022-10-22T09:44:22.688Z,100.00
2022-10-22T09:46:51.633Z,100.00
2022-10-22T09:49:23.986Z,100.00
2022-10-22T09:51:56.130Z,100.00
2022-10-22T09:54:27.485Z,100.00
2022-10-22T09:56:59.049Z,100.00
2022-10-22T09:59:31.964Z,100.00
2022-10-22T10:02:13.762Z,100.00
2022-10-22T10:04:51.713Z,100.00
2022-10-22T10:07:22.896Z,100.00
2022-10-22T10:09:54.934Z,100.00
2022-10-22T10:12:36.987Z,100.00
2022-10-22T10:15:17.786Z,100.00
2022-10-22T10:17:52.887Z,100.00
2022-10-22T10:20:37.587Z,100.00
2022-10-22T10:23:14.761Z,100.00
2022-10-22T10:25:54.926Z,100.00
2022-10-22T10:28:56.771Z,100.00
2022-10-22T10:31:43.380Z,100.00
2022-10-22T10:34:25.531Z,100.00
2022-10-22T10:37:01.228Z,100.00
2022-10-22T10:39:41.778Z,100.00
2022-10-22T10:42:22.848Z,100.00
2022-10-22T10:45:04.427Z,100.00
2022-10-22T10:47:53.897Z,100.00
2022-10-22T10:50:29.644Z,100.00
2022-10-22T10:53:08.977Z,100.00
2022-10-22T10:55:44.302Z,100.00
2022-10-22T10:58:27.549Z,100.00
2022-10-22T11:00:59.854Z,100.00
2022-10-22T11:03:58.391Z,100.00
2022-10-22T11:06:28.838Z,100.00
2022-10-22T11:09:04.142Z,100.00
2022-10-22T11:11:37.880Z,100.00
2022-10-22T11:14:17.232Z,100.00
2022-10-22T11:16:51.338Z,100.00
2022-10-22T11:19:46.251Z,100.00
2022-10-22T11:22:25.812Z,100.00
2022-10-22T11:25:01.798Z,100.00
2022-10-22T11:27:39.835Z,100.00
2022-10-22T11:30:16.984Z,100.00
2022-10-22T11:32:50.677Z,100.00
2022-10-22T11:35:25.986Z,100.00
2022-10-22T11:37:58.303Z,100.00
2022-10-22T11:40:36.802Z,100.00
2022-10-22T11:43:07.981Z,100.00
2022-10-22T11:45:40.248Z,100.00
2022-10-22T11:48:19.456Z,100.00
2022-10-22T11:50:55.130Z,100.00
2022-10-22T11:53:32.210Z,100.00
2022-10-22T11:56:22.574Z,100.00
2022-10-22T11:58:54.813Z,100.00
2022-10-22T12:01:31.154Z,99.83
2022-10-22T12:04:23.748Z,100.00
2022-10-22T12:07:01.483Z,100.00
2022-10-22T12:09:32.871Z,100.00
2022-10-22T12:12:16.603Z,100.00
2022-10-22T12:14:56.597Z,100.00
2022-10-22T12:17:30.510Z,100.00
2022-10-22T12:20:04.283Z,100.00
2022-10-22T12:22:38.274Z,100.00
2022-10-22T12:25:18.186Z,100.00
2022-10-22T12:27:53.526Z,100.00
2022-10-22T12:30:26.601Z,100.00
2022-10-22T12:32:59.877Z,100.00
2022-10-22T12:35:31.014Z,100.00
2022-10-22T12:38:02.001Z,100.00
2022-10-22T12:40:32.406Z,100.00
2022-10-22T12:43:03.381Z,100.00
2022-10-22T12:45:36.152Z,100.00
2022-10-22T12:48:09.628Z,100.00
2022-10-22T12:50:42.222Z,99.52
2022-10-22T12:53:16.343Z,96.97
2022-10-22T12:55:50.228Z,100.00
2022-10-22T12:58:21.972Z,91.19
2022-10-22T13:00:57.643Z,90.23
2022-10-22T13:03:32.247Z,97.96
2022-10-22T13:06:14.471Z,89.68
2022-10-22T13:08:44.578Z,88.89
2022-10-22T13:11:14.400Z,93.43
2022-10-22T13:13:46.249Z,91.95
2022-10-22T13:16:20.469Z,91.45
2022-10-22T13:18:50.779Z,86.93
2022-10-22T13:21:34.989Z,88.30
2022-10-22T13:24:04.041Z,84.34
2022-10-22T13:26:36.106Z,87.81
2022-10-22T13:29:12.276Z,80.05
2022-10-22T13:31:47.643Z,84.24
2022-10-22T13:34:21.939Z,86.58
2022-10-22T13:36:51.824Z,86.19
2022-10-22T13:39:22.363Z,89.93
2022-10-22T13:41:52.809Z,91.65
2022-10-22T13:44:22.057Z,92.68
2022-10-22T13:46:51.310Z,86.75
2022-10-22T13:49:25.059Z,92.62
2022-10-22T13:51:53.996Z,90.01
2022-10-22T13:54:25.818Z,90.81
2022-10-22T13:56:55.836Z,95.24
2022-10-22T13:59:24.904Z,94.21
2022-10-22T14:01:55.332Z,86.54
2022-10-22T14:04:27.029Z,87.22
2022-10-22T14:06:58.857Z,87.69
2022-10-22T14:09:31.770Z,88.30
2022-10-22T14:12:00.442Z,87.28
2022-10-22T14:14:29.200Z,89.56
2022-10-22T14:16:58.621Z,89.62
2022-10-22T14:19:29.035Z,88.14
2022-10-22T14:21:58.168Z,91.38
2022-10-22T14:24:27.201Z,90.47
2022-10-22T14:26:56.577Z,88.35
2022-10-22T14:29:25.257Z,90.45
2022-10-22T14:31:53.947Z,94.05
2022-10-22T14:34:22.635Z,93.22
2022-10-22T14:36:53.590Z,95.23
2022-10-22T14:39:22.409Z,95.76
2022-10-22T14:41:52.117Z,93.08
2022-10-22T14:44:21.266Z,89.06
2022-10-22T14:46:50.691Z,83.61
2022-10-22T14:49:21.461Z,84.21
2022-10-22T14:51:53.594Z,87.17
2022-10-22T14:54:25.288Z,87.30
2022-10-22T14:56:54.881Z,87.74
2022-10-22T14:59:25.337Z,88.47
2022-10-22T15:01:54.430Z,89.89
2022-10-22T15:04:26.417Z,92.18
2022-10-22T15:06:59.366Z,87.85
2022-10-22T15:09:28.165Z,91.35
2022-10-22T15:11:57.045Z,91.25
2022-10-22T15:14:25.502Z,94.58
2022-10-22T15:16:54.793Z,94.54
2022-10-22T15:19:23.891Z,96.56
2022-10-22T15:21:52.217Z,97.35
2022-10-22T15:24:23.526Z,96.88
2022-10-22T15:26:54.845Z,96.47
2022-10-22T15:29:23.860Z,95.03
2022-10-22T15:31:55.194Z,100.00
2022-10-22T15:34:25.643Z,98.37
2022-10-22T15:36:57.881Z,95.35
2022-10-22T15:39:29.095Z,98.05
2022-10-22T15:42:03.089Z,98.70
2022-10-22T15:44:32.435Z,98.71
2022-10-22T15:47:02.409Z,100.00
2022-10-22T15:49:31.034Z,100.00
2022-10-22T15:52:00.004Z,100.00
2022-10-22T15:54:31.757Z,100.00
2022-10-22T15:57:03.054Z,100.00
2022-10-22T15:59:33.025Z,99.37
2022-10-22T16:02:01.908Z,100.00
2022-10-22T16:04:30.291Z,100.00
2022-10-22T16:07:00.758Z,100.00
2022-10-22T16:09:30.714Z,100.00
2022-10-22T16:11:59.285Z,100.00
2022-10-22T16:14:29.106Z,100.00
2022-10-22T16:17:00.142Z,100.00
2022-10-22T16:19:29.920Z,100.00
2022-10-22T16:22:02.630Z,100.00
2022-10-22T16:24:32.885Z,100.00
2022-10-22T16:27:01.535Z,100.00
2022-10-22T16:29:31.226Z,100.00
2022-10-22T16:32:00.028Z,100.00
2022-10-22T16:34:32.045Z,100.00
2022-10-22T16:37:00.886Z,100.00
2022-10-22T16:39:30.321Z,100.00
2022-10-22T16:41:59.902Z,100.00
2022-10-22T16:44:29.145Z,100.00
2022-10-22T16:46:58.852Z,100.00
2022-10-22T16:49:27.305Z,100.00
2022-10-22T16:51:55.930Z,100.00
2022-10-22T16:54:24.652Z,100.00
2022-10-22T16:56:53.254Z,100.00
2022-10-22T16:59:24.155Z,100.00
2022-10-22T17:01:55.066Z,100.00
2022-10-22T17:04:23.750Z,100.00
2022-10-22T17:06:52.527Z,100.00
2022-10-22T17:09:21.587Z,100.00
2022-10-22T17:11:50.038Z,100.00
2022-10-22T17:14:18.694Z,100.00
2022-10-22T17:16:53.751Z,100.00
2022-10-22T17:19:23.214Z,100.00
2022-10-22T17:21:54.048Z,100.00
2022-10-22T17:24:22.933Z,100.00
2022-10-22T17:26:52.031Z,100.00
2022-10-22T17:29:22.682Z,100.00
2022-10-22T17:31:52.790Z,100.00
2022-10-22T17:34:22.091Z,100.00
2022-10-22T17:36:50.834Z,100.00
2022-10-22T17:39:20.252Z,100.00
2022-10-22T17:41:48.747Z,100.00
2022-10-22T17:44:18.886Z,100.00
2022-10-22T17:46:50.627Z,100.00
2022-10-22T17:49:22.641Z,100.00
2022-10-22T17:51:51.154Z,100.00
2022-10-22T17:54:19.999Z,100.00
2022-10-22T17:56:49.929Z,100.00
2022-10-22T17:59:19.964Z,100.00
2022-10-22T18:01:49.005Z,100.00
2022-10-22T18:04:22.710Z,100.00
2022-10-22T18:06:51.969Z,100.00
2022-10-22T18:09:21.226Z,100.00
2022-10-22T18:11:51.845Z,100.00
2022-10-22T18:14:22.593Z,100.00
2022-10-22T18:16:53.116Z,100.00
2022-10-22T18:19:24.990Z,100.00
2022-10-22T18:21:53.779Z,100.00
2022-10-22T18:24:22.551Z,100.00
2022-10-22T18:26:51.665Z,100.00
2022-10-22T18:29:23.790Z,100.00
2022-10-22T18:31:52.829Z,100.00
2022-10-22T18:34:24.324Z,100.00
2022-10-22T18:36:53.546Z,100.00
2022-10-22T18:39:23.266Z,100.00
2022-10-22T18:41:51.846Z,100.00
2022-10-22T18:44:21.441Z,100.00
2022-10-22T18:46:51.148Z,100.00
2022-10-22T18:49:21.173Z,100.00
2022-10-22T18:51:53.194Z,100.00
2022-10-22T18:54:23.965Z,100.00
2022-10-22T18:56:54.874Z,100.00
2022-10-22T18:59:27.813Z,100.00
2022-10-22T19:01:59.803Z,100.00
2022-10-22T19:04:33.764Z,100.00
2022-10-22T19:07:06.288Z,100.00
2022-10-22T19:09:35.306Z,100.00
2022-10-22T19:12:04.464Z,100.00
2022-10-22T19:14:34.575Z,100.00
2022-10-22T19:17:03.214Z,100.00
2022-10-22T19:19:32.389Z,100.00
2022-10-22T19:22:02.903Z,100.00
2022-10-22T19:24:31.966Z,100.00
2022-10-22T19:27:00.690Z,100.00
2022-10-22T19:29:29.248Z,100.00
2022-10-22T19:31:58.072Z,100.00
2022-10-22T19:34:26.983Z,100.00
2022-10-22T19:36:56.723Z,100.00
2022-10-22T19:39:26.870Z,100.00
2022-10-22T19:41:56.105Z,100.00
2022-10-22T19:44:24.810Z,100.00
2022-10-22T19:46:53.754Z,100.00
2022-10-22T19:49:23.292Z,100.00
2022-10-22T19:51:52.366Z,100.00
2022-10-22T19:54:21.227Z,100.00
2022-10-22T19:56:51.775Z,100.00
2022-10-22T19:59:27.252Z,100.00
2022-10-22T20:01:59.216Z,100.00
2022-10-22T20:04:29.107Z,100.00
2022-10-22T20:06:57.818Z,100.00
2022-10-22T20:09:26.690Z,100.00
2022-10-22T20:11:57.244Z,100.00
2022-10-22T20:14:26.920Z,100.00
2022-10-22T20:16:56.000Z,100.00
2022-10-22T20:19:34.653Z,100.00
2022-10-22T20:22:03.135Z,100.00
2022-10-22T20:24:32.396Z,100.00
2022-10-22T20:27:05.531Z,100.00
2022-10-22T20:29:34.188Z,100.00
2022-10-22T20:32:05.437Z,100.00
2022-10-22T20:34:37.466Z,100.00
2022-10-22T20:37:06.086Z,100.00
2022-10-22T20:39:34.842Z,100.00
2022-10-22T20:42:05.002Z,100.00
2022-10-22T20:44:33.472Z,100.00
2022-10-22T20:47:02.866Z,100.00
2022-10-22T20:49:33.005Z,100.00
2022-10-22T20:52:01.637Z,100.00
2022-10-22T20:54:30.314Z,100.00
2022-10-22T20:57:00.966Z,100.00
2022-10-22T20:59:33.687Z,100.00
2022-10-22T21:02:02.901Z,100.00
2022-10-22T21:04:31.681Z,100.00
2022-10-22T21:07:00.459Z,100.00
2022-10-22T21:09:29.194Z,100.00
2022-10-22T21:12:03.396Z,100.00
2022-10-22T21:14:34.551Z,100.00
2022-10-22T21:17:03.131Z,100.00
2022-10-22T21:19:32.219Z,100.00
2022-10-22T21:22:00.612Z,100.00
2022-10-22T21:24:29.490Z,100.00
2022-10-22T21:26:58.251Z,100.00
2022-10-22T21:29:27.451Z,100.00
2022-10-22T21:31:57.534Z,100.00
2022-10-22T21:34:27.185Z,100.00
2022-10-22T21:36:56.345Z,100.00
2022-10-22T21:39:26.699Z,100.00
2022-10-22T21:41:56.107Z,100.00
2022-10-22T21:44:25.714Z,100.00
2022-10-22T21:46:54.917Z,100.00
2022-10-22T21:49:26.081Z,100.00
2022-10-22T21:51:55.378Z,100.00
2022-10-22T21:54:23.958Z,100.00
2022-10-22T21:56:55.771Z,100.00
2022-10-22T21:59:26.163Z,100.00
2022-10-22T22:01:57.128Z,100.00
2022-10-22T22:04:27.515Z,100.00
2022-10-22T22:06:57.126Z,100.00
2022-10-22T22:09:25.792Z,100.00
2022-10-22T22:11:55.227Z,100.00
2022-10-22T22:14:23.809Z,100.00
2022-10-22T22:16:52.193Z,100.00
2022-10-22T22:19:21.327Z,100.00
2022-10-22T22:21:53.487Z,100.00
2022-10-22T22:24:22.123Z,100.00
2022-10-22T22:26:51.076Z,100.00
2022-10-22T22:29:21.915Z,100.00
2022-10-22T22:31:50.686Z,100.00
2022-10-22T22:34:20.168Z,100.00
2022-10-22T22:36:51.416Z,100.00
2022-10-22T22:39:22.995Z,100.00
2022-10-22T22:41:51.451Z,100.00
2022-10-22T22:44:20.556Z,100.00
2022-10-22T22:46:49.827Z,100.00
2022-10-22T22:49:19.291Z,100.00
2022-10-22T22:51:52.738Z,100.00
2022-10-22T22:54:21.785Z,100.00
2022-10-22T22:56:52.027Z,100.00
2022-10-22T22:59:20.822Z,100.00
2022-10-22T23:01:50.915Z,100.00
2022-10-22T23:04:26.518Z,100.00
2022-10-22T23:06:56.449Z,100.00
2022-10-22T23:09:25.602Z,100.00
2022-10-22T23:11:54.564Z,100.00
2022-10-22T23:14:22.982Z,100.00
2022-10-22T23:16:54.027Z,100.00
2022-10-22T23:19:24.271Z,100.00
2022-10-22T23:21:59.501Z,100.00
2022-10-22T23:24:32.320Z,100.00
2022-10-22T23:27:02.764Z,100.00
2022-10-22T23:29:33.552Z,100.00
2022-10-22T23:32:03.283Z,100.00
2022-10-22T23:34:32.464Z,100.00
2022-10-22T23:37:02.915Z,100.00
2022-10-22T23:39:33.373Z,100.00
2022-10-22T23:42:02.225Z,100.00
2022-10-22T23:44:30.851Z,100.00
2022-10-22T23:46:59.395Z,100.00
2022-10-22T23:49:28.407Z,100.00
2022-10-22T23:51:57.184Z,100.00
2022-10-22T23:54:27.360Z,100.00
2022-10-22T23:56:56.103Z,100.00
2022-10-22T23:59:24.945Z,100.00
